createdAt,value
2018-01-07T00:00:51.875Z,91.09
2018-01-07T00:01:51.855Z,90.76
2018-01-07T00:02:51.830Z,91.14
2018-01-07T00:03:51.814Z,91.90
2018-01-07T00:04:51.782Z,90.95
2018-01-07T00:05:51.761Z,90.76
2018-01-07T00:06:51.741Z,90.48
2018-01-07T00:07:51.731Z,90.86
2018-01-07T00:08:51.700Z,91.61
2018-01-07T00:09:51.673Z,91.42
2018-01-07T00:10:51.653Z,90.48
2018-01-07T00:11:51.640Z,91.52
2018-01-07T00:12:51.611Z,91.52
2018-01-07T00:13:51.586Z,91.47
2018-01-07T00:14:51.564Z,91.19
2018-01-07T00:15:51.552Z,91.75
2018-01-07T00:16:51.522Z,91.75
2018-01-07T00:17:51.500Z,91.85
2018-01-07T00:18:51.480Z,91.05
2018-01-07T00:19:51.466Z,91.19
2018-01-07T00:20:51.432Z,90.71
2018-01-07T00:21:51.410Z,91.33
2018-01-07T00:22:51.391Z,91.05
2018-01-07T00:23:51.370Z,91.24
2018-01-07T00:24:51.352Z,91.42
2018-01-07T00:25:51.324Z,91.52
2018-01-07T00:26:51.306Z,91.75
2018-01-07T00:27:51.279Z,90.86
2018-01-07T00:28:51.270Z,92.04
2018-01-07T00:29:51.241Z,91.42
2018-01-07T00:30:51.216Z,91.33
2018-01-07T00:31:51.193Z,90.95
2018-01-07T00:32:51.170Z,91.05
2018-01-07T00:33:51.154Z,91.61
2018-01-07T00:34:51.131Z,91.33
2018-01-07T00:35:51.113Z,91.52
2018-01-07T00:36:51.085Z,91.33
2018-01-07T00:37:51.058Z,91.33
2018-01-07T00:38:51.042Z,91.52
2018-01-07T00:39:51.013Z,91.61
2018-01-07T00:40:50.994Z,91.61
2018-01-07T00:41:50.990Z,91.52
2018-01-07T00:42:50.950Z,91.42
2018-01-07T00:43:50.931Z,91.33
2018-01-07T00:44:50.906Z,90.76
2018-01-07T00:45:50.881Z,90.48
2018-01-07T00:46:50.860Z,91.52
2018-01-07T00:47:50.842Z,91.52
2018-01-07T00:48:50.820Z,91.52
2018-01-07T00:49:50.793Z,91.33
2018-01-07T00:50:50.781Z,90.86
2018-01-07T00:51:50.749Z,90.86
2018-01-07T00:52:50.730Z,91.24
2018-01-07T00:53:50.712Z,91.61
2018-01-07T00:54:50.681Z,91.52
2018-01-07T00:55:50.661Z,91.71
2018-01-07T00:56:50.640Z,90.95
2018-01-07T00:57:50.615Z,90.76
2018-01-07T00:58:50.594Z,90.86
2018-01-07T00:59:50.630Z,91.42
2018-01-07T01:00:50.550Z,91.56
2018-01-07T01:01:50.526Z,91.66
2018-01-07T01:02:50.514Z,91.66
2018-01-07T01:03:50.492Z,91.00
2018-01-07T01:04:50.468Z,91.09
2018-01-07T01:05:50.492Z,90.90
2018-01-07T01:06:50.418Z,91.09
2018-01-07T01:07:50.402Z,91.38
2018-01-07T01:08:50.379Z,91.85
2018-01-07T01:09:50.359Z,91.66
2018-01-07T01:10:50.332Z,91.56
2018-01-07T01:11:50.310Z,91.00
2018-01-07T01:12:50.292Z,90.90
2018-01-07T01:13:50.284Z,91.09
2018-01-07T01:14:50.254Z,90.90
2018-01-07T01:15:50.229Z,91.85
2018-01-07T01:16:50.200Z,90.90
2018-01-07T01:17:50.193Z,91.85
2018-01-07T01:18:50.160Z,91.85
2018-01-07T01:19:50.141Z,90.90
2018-01-07T01:20:50.112Z,91.00
2018-01-07T01:21:50.090Z,91.38
2018-01-07T01:22:50.067Z,91.66
2018-01-07T01:23:50.042Z,91.56
2018-01-07T01:24:50.020Z,91.66
2018-01-07T01:25:50.003Z,88.62
2018-01-07T01:26:49.982Z,91.47
2018-01-07T01:27:49.960Z,91.94
2018-01-07T01:28:49.940Z,91.28
2018-01-07T01:29:49.920Z,91.00
2018-01-07T01:30:49.890Z,90.52
2018-01-07T01:31:49.867Z,91.19
2018-01-07T01:32:49.847Z,91.09
2018-01-07T01:33:49.825Z,91.28
2018-01-07T01:34:49.808Z,91.00
2018-01-07T01:35:49.781Z,91.19
2018-01-07T01:36:49.768Z,91.00
2018-01-07T01:37:49.742Z,92.04
2018-01-07T01:38:49.715Z,91.09
2018-01-07T01:39:49.697Z,91.33
2018-01-07T01:40:49.669Z,91.19
2018-01-07T01:41:49.651Z,91.75
2018-01-07T01:42:49.631Z,91.19
2018-01-07T01:43:49.612Z,91.19
2018-01-07T01:44:49.590Z,91.28
2018-01-07T01:45:49.560Z,91.00
2018-01-07T01:46:49.541Z,91.19
2018-01-07T01:47:49.519Z,91.19
2018-01-07T01:48:49.495Z,91.00
2018-01-07T01:49:49.491Z,91.09
2018-01-07T01:50:49.450Z,91.00
2018-01-07T01:51:49.428Z,91.24
2018-01-07T01:52:49.409Z,90.95
2018-01-07T01:53:49.387Z,91.05
2018-01-07T01:54:49.371Z,91.71
2018-01-07T01:55:49.380Z,91.52
2018-01-07T01:56:49.320Z,91.05
2018-01-07T01:57:49.298Z,91.33
2018-01-07T01:58:49.275Z,91.42
2018-01-07T01:59:49.256Z,91.33
2018-01-07T02:00:49.234Z,90.95
2018-01-07T02:01:49.222Z,90.86
2018-01-07T02:02:49.193Z,91.42
2018-01-07T02:03:49.227Z,91.52
2018-01-07T02:04:49.142Z,91.38
2018-01-07T02:05:49.129Z,91.33
2018-01-07T02:06:49.099Z,92.18
2018-01-07T02:07:49.212Z,91.09
2018-01-07T02:08:49.057Z,91.38
2018-01-07T02:09:49.036Z,91.19
2018-01-07T02:10:49.009Z,91.47
2018-01-07T02:11:49.000Z,91.00
2018-01-07T02:12:48.968Z,91.33
2018-01-07T02:13:48.944Z,91.28
2018-01-07T02:14:48.934Z,91.14
2018-01-07T02:15:48.900Z,91.33
2018-01-07T02:16:48.889Z,91.05
2018-01-07T02:17:48.865Z,91.14
2018-01-07T02:18:48.838Z,91.14
2018-01-07T02:19:48.820Z,91.14
2018-01-07T02:20:48.792Z,91.19
2018-01-07T02:21:48.770Z,91.75
2018-01-07T02:22:48.743Z,91.09
2018-01-07T02:23:48.732Z,91.56
2018-01-07T02:24:48.698Z,91.28
2018-01-07T02:25:48.680Z,91.38
2018-01-07T02:26:48.659Z,91.38
2018-01-07T02:27:48.642Z,91.33
2018-01-07T02:28:48.613Z,91.14
2018-01-07T02:29:48.604Z,91.38
2018-01-07T02:30:48.571Z,90.67
2018-01-07T02:31:48.545Z,91.33
2018-01-07T02:32:48.524Z,91.14
2018-01-07T02:33:48.499Z,91.05
2018-01-07T02:34:48.480Z,90.95
2018-01-07T02:35:48.458Z,91.42
2018-01-07T02:36:48.438Z,91.33
2018-01-07T02:37:48.420Z,91.14
2018-01-07T02:38:48.393Z,91.24
2018-01-07T02:39:48.370Z,91.24
2018-01-07T02:40:48.349Z,91.33
2018-01-07T02:41:48.329Z,91.71
2018-01-07T02:42:48.299Z,90.48
2018-01-07T02:43:48.280Z,91.24
2018-01-07T02:44:48.261Z,91.14
2018-01-07T02:45:48.240Z,91.33
2018-01-07T02:46:48.211Z,91.33
2018-01-07T02:47:48.190Z,91.14
2018-01-07T02:48:48.170Z,90.62
2018-01-07T02:49:48.147Z,90.67
2018-01-07T02:50:48.128Z,91.33
2018-01-07T02:51:48.104Z,90.86
2018-01-07T02:52:48.079Z,91.38
2018-01-07T02:53:48.061Z,91.19
2018-01-07T02:54:48.037Z,91.19
2018-01-07T02:55:48.013Z,90.33
2018-01-07T02:56:47.993Z,90.62
2018-01-07T02:57:47.977Z,90.76
2018-01-07T02:58:47.947Z,90.29
2018-01-07T02:59:47.932Z,90.57
2018-01-07T03:00:47.906Z,90.67
2018-01-07T03:01:47.882Z,91.14
2018-01-07T03:02:47.861Z,90.57
2018-01-07T03:03:47.835Z,90.48
2018-01-07T03:04:47.822Z,91.05
2018-01-07T03:05:47.793Z,90.86
2018-01-07T03:06:47.772Z,90.48
2018-01-07T03:07:47.752Z,90.67
2018-01-07T03:08:47.727Z,90.19
2018-01-07T03:09:47.705Z,90.29
2018-01-07T03:10:47.678Z,90.57
2018-01-07T03:11:47.655Z,90.48
2018-01-07T03:12:47.639Z,91.14
2018-01-07T03:13:47.610Z,90.67
2018-01-07T03:14:47.588Z,91.33
2018-01-07T03:15:47.568Z,90.67
2018-01-07T03:16:47.543Z,90.95
2018-01-07T03:17:47.520Z,91.24
2018-01-07T03:18:47.501Z,91.14
2018-01-07T03:19:47.478Z,91.05
2018-01-07T03:20:47.456Z,91.24
2018-01-07T03:21:47.431Z,90.76
2018-01-07T03:22:47.410Z,90.95
2018-01-07T03:23:47.388Z,90.57
2018-01-07T03:24:47.369Z,90.86
2018-01-07T03:25:47.346Z,90.67
2018-01-07T03:26:47.325Z,91.05
2018-01-07T03:27:47.297Z,90.67
2018-01-07T03:28:47.276Z,90.76
2018-01-07T03:29:47.250Z,91.42
2018-01-07T03:30:47.229Z,91.14
2018-01-07T03:31:47.208Z,90.67
2018-01-07T03:32:47.188Z,90.67
2018-01-07T03:33:47.164Z,90.00
2018-01-07T03:34:47.138Z,90.57
2018-01-07T03:35:47.120Z,90.67
2018-01-07T03:36:47.098Z,90.67
2018-01-07T03:37:47.083Z,90.57
2018-01-07T03:38:47.049Z,90.95
2018-01-07T03:39:47.032Z,90.48
2018-01-07T03:40:47.006Z,90.86
2018-01-07T03:41:46.992Z,90.38
2018-01-07T03:42:46.959Z,90.86
2018-01-07T03:43:46.939Z,90.48
2018-01-07T03:44:46.919Z,90.86
2018-01-07T03:45:46.900Z,90.10
2018-01-07T03:46:46.869Z,90.19
2018-01-07T03:47:46.850Z,91.05
2018-01-07T03:48:46.827Z,90.57
2018-01-07T03:49:46.808Z,90.48
2018-01-07T03:50:46.787Z,90.10
2018-01-07T03:51:46.760Z,90.57
2018-01-07T03:52:46.740Z,90.67
2018-01-07T03:53:46.724Z,90.86
2018-01-07T03:54:46.693Z,90.76
2018-01-07T03:55:46.670Z,90.57
2018-01-07T03:56:46.646Z,90.67
2018-01-07T03:57:46.636Z,90.48
2018-01-07T03:58:46.610Z,90.76
2018-01-07T03:59:46.581Z,90.48
2018-01-07T04:00:46.559Z,91.14
2018-01-07T04:01:46.535Z,90.57
2018-01-07T04:02:46.520Z,91.14
2018-01-07T04:03:46.498Z,90.57
2018-01-07T04:04:46.468Z,90.57
2018-01-07T04:05:46.453Z,90.57
2018-01-07T04:06:46.425Z,90.57
2018-01-07T04:07:46.403Z,90.67
2018-01-07T04:08:46.379Z,90.48
2018-01-07T04:09:46.359Z,90.95
2018-01-07T04:10:46.338Z,90.67
2018-01-07T04:11:46.312Z,91.33
2018-01-07T04:12:46.290Z,90.86
2018-01-07T04:13:46.269Z,90.38
2018-01-07T04:14:46.253Z,90.38
2018-01-07T04:15:46.230Z,91.33
2018-01-07T04:16:46.199Z,90.57
2018-01-07T04:17:46.178Z,90.29
2018-01-07T04:18:46.154Z,91.05
2018-01-07T04:19:46.142Z,90.86
2018-01-07T04:20:46.118Z,90.38
2018-01-07T04:21:46.085Z,91.05
2018-01-07T04:22:46.117Z,90.67
2018-01-07T04:23:46.044Z,91.24
2018-01-07T04:24:46.020Z,91.14
2018-01-07T04:25:45.997Z,91.33
2018-01-07T04:26:45.982Z,90.48
2018-01-07T04:27:45.959Z,90.86
2018-01-07T04:28:45.932Z,91.14
2018-01-07T04:29:45.908Z,91.14
2018-01-07T04:30:45.888Z,90.67
2018-01-07T04:31:45.870Z,90.57
2018-01-07T04:32:45.850Z,90.67
2018-01-07T04:33:45.819Z,90.86
2018-01-07T04:34:45.798Z,90.57
2018-01-07T04:35:45.775Z,90.48
2018-01-07T04:36:45.759Z,90.67
2018-01-07T04:37:45.729Z,91.24
2018-01-07T04:38:45.710Z,90.67
2018-01-07T04:39:45.685Z,90.95
2018-01-07T04:40:45.665Z,90.67
2018-01-07T04:41:45.639Z,90.67
2018-01-07T04:42:45.711Z,90.57
2018-01-07T04:43:45.595Z,90.48
2018-01-07T04:44:45.572Z,91.33
2018-01-07T04:45:45.557Z,90.57
2018-01-07T04:46:45.529Z,90.38
2018-01-07T04:47:45.511Z,90.67
2018-01-07T04:48:45.493Z,90.19
2018-01-07T04:49:45.714Z,90.76
2018-01-07T04:50:45.440Z,91.14
2018-01-07T04:51:45.427Z,91.24
2018-01-07T04:52:45.399Z,90.38
2018-01-07T04:53:45.384Z,90.67
2018-01-07T04:54:45.354Z,90.76
2018-01-07T04:55:45.330Z,90.57
2018-01-07T04:56:45.304Z,90.57
2018-01-07T04:57:45.286Z,90.29
2018-01-07T04:58:45.261Z,90.48
2018-01-07T04:59:45.245Z,91.05
2018-01-07T05:00:45.219Z,91.33
2018-01-07T05:01:45.196Z,90.67
2018-01-07T05:02:45.170Z,90.95
2018-01-07T05:03:45.150Z,90.57
2018-01-07T05:04:45.127Z,90.76
2018-01-07T05:05:45.111Z,91.24
2018-01-07T05:06:45.082Z,90.76
2018-01-07T05:07:45.061Z,90.86
2018-01-07T05:08:45.040Z,90.10
2018-01-07T05:09:45.018Z,90.67
2018-01-07T05:10:45.000Z,90.48
2018-01-07T05:11:44.970Z,90.48
2018-01-07T05:12:44.951Z,90.10
2018-01-07T05:13:44.924Z,90.48
2018-01-07T05:14:44.902Z,90.67
2018-01-07T05:15:44.880Z,90.10
2018-01-07T05:16:44.858Z,90.34
2018-01-07T05:17:44.840Z,91.05
2018-01-07T05:18:44.815Z,91.14
2018-01-07T05:19:44.789Z,91.24
2018-01-07T05:20:44.769Z,91.24
2018-01-07T05:21:44.748Z,91.14
2018-01-07T05:22:44.728Z,91.14
2018-01-07T05:23:44.701Z,90.76
2018-01-07T05:24:44.680Z,91.38
2018-01-07T05:25:44.656Z,90.34
2018-01-07T05:26:44.638Z,91.57
2018-01-07T05:27:44.611Z,90.91
2018-01-07T05:28:44.589Z,90.62
2018-01-07T05:29:44.568Z,91.09
2018-01-07T05:30:44.541Z,90.53
2018-01-07T05:31:44.530Z,90.72
2018-01-07T05:32:44.500Z,91.28
2018-01-07T05:33:44.475Z,91.38
2018-01-07T05:34:44.459Z,91.09
2018-01-07T05:35:44.430Z,90.53
2018-01-07T05:36:44.409Z,91.00
2018-01-07T05:37:44.386Z,91.66
2018-01-07T05:38:44.369Z,91.28
2018-01-07T05:39:44.339Z,90.62
2018-01-07T05:40:44.319Z,90.62
2018-01-07T05:41:44.297Z,90.05
2018-01-07T05:42:44.269Z,91.19
2018-01-07T05:43:44.247Z,90.62
2018-01-07T05:44:44.230Z,90.81
2018-01-07T05:45:44.210Z,90.43
2018-01-07T05:46:44.180Z,90.53
2018-01-07T05:47:44.162Z,90.53
2018-01-07T05:48:44.196Z,90.43
2018-01-07T05:49:44.120Z,90.15
2018-01-07T05:50:44.090Z,90.43
2018-01-07T05:51:44.069Z,90.05
2018-01-07T05:52:44.049Z,89.77
2018-01-07T05:53:44.019Z,90.34
2018-01-07T05:54:43.999Z,90.05
2018-01-07T05:55:43.975Z,90.34
2018-01-07T05:56:43.954Z,89.96
2018-01-07T05:57:43.930Z,90.62
2018-01-07T05:58:43.905Z,91.19
2018-01-07T05:59:43.886Z,90.72
2018-01-07T06:00:43.859Z,91.09
2018-01-07T06:01:43.835Z,91.38
2018-01-07T06:02:43.816Z,91.19
2018-01-07T06:03:43.800Z,91.09
2018-01-07T06:04:43.774Z,91.09
2018-01-07T06:05:43.749Z,90.81
2018-01-07T06:06:43.720Z,91.00
2018-01-07T06:07:43.699Z,91.00
2018-01-07T06:08:43.678Z,90.43
2018-01-07T06:09:43.653Z,90.34
2018-01-07T06:10:43.627Z,90.05
2018-01-07T06:11:43.610Z,90.39
2018-01-07T06:12:43.590Z,90.48
2018-01-07T06:13:43.564Z,91.14
2018-01-07T06:14:43.539Z,90.86
2018-01-07T06:15:43.515Z,91.14
2018-01-07T06:16:43.498Z,91.14
2018-01-07T06:17:43.468Z,91.14
2018-01-07T06:18:43.453Z,90.62
2018-01-07T06:19:43.423Z,90.91
2018-01-07T06:20:43.399Z,90.24
2018-01-07T06:21:43.380Z,90.72
2018-01-07T06:22:43.356Z,90.39
2018-01-07T06:23:43.340Z,90.48
2018-01-07T06:24:43.314Z,91.05
2018-01-07T06:25:43.291Z,90.58
2018-01-07T06:26:43.268Z,91.14
2018-01-07T06:27:43.240Z,90.86
2018-01-07T06:28:43.218Z,90.48
2018-01-07T06:29:43.192Z,90.48
2018-01-07T06:30:43.170Z,91.05
2018-01-07T06:31:43.151Z,90.58
2018-01-07T06:32:43.131Z,90.58
2018-01-07T06:33:43.100Z,90.29
2018-01-07T06:34:43.080Z,90.86
2018-01-07T06:35:43.063Z,91.05
2018-01-07T06:36:43.036Z,90.77
2018-01-07T06:37:43.012Z,91.14
2018-01-07T06:38:42.989Z,91.24
2018-01-07T06:39:42.967Z,91.33
2018-01-07T06:40:42.942Z,90.39
2018-01-07T06:41:42.916Z,91.24
2018-01-07T06:42:42.891Z,90.58
2018-01-07T06:43:42.866Z,89.91
2018-01-07T06:44:42.846Z,90.20
2018-01-07T06:45:42.825Z,90.67
2018-01-07T06:46:42.797Z,89.91
2018-01-07T06:47:42.779Z,89.91
2018-01-07T06:48:42.750Z,91.05
2018-01-07T06:49:42.759Z,91.43
2018-01-07T06:50:42.711Z,91.24
2018-01-07T06:51:42.743Z,90.77
2018-01-07T06:52:42.661Z,90.58
2018-01-07T06:53:42.640Z,90.39
2018-01-07T06:54:42.619Z,90.20
2018-01-07T06:55:42.601Z,90.48
2018-01-07T06:56:42.581Z,91.24
2018-01-07T06:57:42.543Z,91.05
2018-01-07T06:58:42.520Z,90.95
2018-01-07T06:59:42.497Z,91.05
2018-01-07T07:00:42.475Z,91.05
2018-01-07T07:01:42.450Z,90.67
2018-01-07T07:02:42.430Z,90.95
2018-01-07T07:03:42.403Z,90.95
2018-01-07T07:04:42.380Z,91.05
2018-01-07T07:05:42.358Z,90.58
2018-01-07T07:06:42.332Z,90.63
2018-01-07T07:07:42.311Z,90.15
2018-01-07T07:08:42.284Z,90.91
2018-01-07T07:09:42.262Z,90.81
2018-01-07T07:10:42.237Z,91.00
2018-01-07T07:11:42.214Z,91.05
2018-01-07T07:12:42.189Z,91.05
2018-01-07T07:13:42.169Z,91.00
2018-01-07T07:14:42.146Z,91.24
2018-01-07T07:15:42.122Z,90.48
2018-01-07T07:16:42.098Z,90.86
2018-01-07T07:17:42.073Z,91.00
2018-01-07T07:18:42.051Z,91.19
2018-01-07T07:19:42.031Z,91.29
2018-01-07T07:20:42.009Z,90.63
2018-01-07T07:21:41.977Z,90.91
2018-01-07T07:22:41.964Z,90.91
2018-01-07T07:23:41.939Z,90.72
2018-01-07T07:24:41.914Z,91.10
2018-01-07T07:25:41.891Z,91.00
2018-01-07T07:26:41.860Z,91.19
2018-01-07T07:27:41.836Z,91.00
2018-01-07T07:28:41.812Z,91.05
2018-01-07T07:29:41.790Z,90.91
2018-01-07T07:30:41.768Z,90.25
2018-01-07T07:31:41.745Z,90.48
2018-01-07T07:32:41.721Z,90.81
2018-01-07T07:33:41.692Z,90.15
2018-01-07T07:34:41.670Z,91.00
2018-01-07T07:35:41.648Z,90.86
2018-01-07T07:36:41.629Z,90.86
2018-01-07T07:37:41.600Z,90.44
2018-01-07T07:38:41.580Z,90.91
2018-01-07T07:39:41.560Z,90.53
2018-01-07T07:40:41.532Z,91.19
2018-01-07T07:41:41.510Z,90.44
2018-01-07T07:42:41.488Z,90.34
2018-01-07T07:43:41.459Z,91.29
2018-01-07T07:44:41.439Z,90.81
2018-01-07T07:45:41.410Z,90.91
2018-01-07T07:46:41.390Z,91.00
2018-01-07T07:47:41.369Z,90.72
2018-01-07T07:48:41.347Z,91.10
2018-01-07T07:49:41.318Z,91.00
2018-01-07T07:50:41.297Z,91.10
2018-01-07T07:51:41.270Z,90.72
2018-01-07T07:52:41.250Z,90.81
2018-01-07T07:53:41.229Z,91.00
2018-01-07T07:54:41.209Z,91.38
2018-01-07T07:55:41.179Z,90.91
2018-01-07T07:56:41.156Z,91.57
2018-01-07T07:57:41.130Z,91.00
2018-01-07T07:58:41.108Z,91.00
2018-01-07T07:59:41.080Z,91.00
2018-01-07T08:00:41.065Z,91.76
2018-01-07T08:01:41.036Z,90.81
2018-01-07T08:02:41.060Z,91.57
2018-01-07T08:03:40.990Z,91.76
2018-01-07T08:04:40.965Z,90.81
2018-01-07T08:05:40.939Z,91.48
2018-01-07T08:06:40.930Z,90.81
2018-01-07T08:07:40.901Z,90.91
2018-01-07T08:08:40.871Z,91.00
2018-01-07T08:09:40.852Z,91.76
2018-01-07T08:10:40.833Z,91.57
2018-01-07T08:11:40.803Z,90.91
2018-01-07T08:12:40.829Z,90.81
2018-01-07T08:13:40.751Z,91.67
2018-01-07T08:14:40.732Z,91.76
2018-01-07T08:15:40.711Z,91.95
2018-01-07T08:16:40.696Z,91.57
2018-01-07T08:17:40.664Z,90.91
2018-01-07T08:18:40.680Z,91.57
2018-01-07T08:19:40.614Z,91.10
2018-01-07T08:20:40.692Z,91.38
2018-01-07T08:21:40.572Z,91.10
2018-01-07T08:22:40.641Z,91.10
2018-01-07T08:23:40.521Z,90.72
2018-01-07T08:24:40.598Z,90.91
2018-01-07T08:25:40.471Z,91.57
2018-01-07T08:26:40.492Z,91.76
2018-01-07T08:27:40.420Z,90.91
2018-01-07T08:28:40.397Z,91.00
2018-01-07T08:29:40.371Z,90.72
2018-01-07T08:30:40.346Z,90.81
2018-01-07T08:31:40.337Z,91.38
2018-01-07T08:32:40.303Z,91.57
2018-01-07T08:33:40.278Z,90.91
2018-01-07T08:34:40.262Z,90.91
2018-01-07T08:35:40.242Z,91.10
2018-01-07T08:36:40.212Z,90.81
2018-01-07T08:37:40.183Z,91.95
2018-01-07T08:38:40.161Z,91.00
2018-01-07T08:39:40.144Z,90.72
2018-01-07T08:40:40.114Z,90.81
2018-01-07T08:41:40.090Z,90.44
2018-01-07T08:42:40.071Z,90.81
2018-01-07T08:43:40.051Z,90.95
2018-01-07T08:44:40.019Z,91.00
2018-01-07T08:45:40.002Z,90.91
2018-01-07T08:46:39.973Z,91.19
2018-01-07T08:47:39.950Z,90.34
2018-01-07T08:48:39.934Z,91.00
2018-01-07T08:49:39.910Z,91.19
2018-01-07T08:50:39.882Z,90.53
2018-01-07T08:51:39.860Z,90.95
2018-01-07T08:52:39.843Z,90.15
2018-01-07T08:53:39.821Z,91.00
2018-01-07T08:54:39.793Z,90.95
2018-01-07T08:55:39.766Z,90.48
2018-01-07T08:56:39.748Z,91.14
2018-01-07T08:57:39.722Z,90.39
2018-01-07T08:58:39.702Z,90.86
2018-01-07T08:59:39.670Z,89.72
2018-01-07T09:00:39.650Z,89.72
2018-01-07T09:01:39.631Z,89.48
2018-01-07T09:02:39.608Z,89.86
2018-01-07T09:03:39.581Z,89.48
2018-01-07T09:04:39.561Z,89.15
2018-01-07T09:05:39.542Z,87.77
2018-01-07T09:06:39.515Z,87.12
2018-01-07T09:07:39.491Z,88.06
2018-01-07T09:08:39.472Z,87.30
2018-01-07T09:09:39.452Z,88.25
2018-01-07T09:10:39.424Z,88.44
2018-01-07T09:11:39.413Z,88.44
2018-01-07T09:12:39.387Z,87.82
2018-01-07T09:13:39.362Z,87.25
2018-01-07T09:14:39.340Z,87.25
2018-01-07T09:15:39.320Z,86.87
2018-01-07T09:16:39.299Z,86.78
2018-01-07T09:17:39.284Z,87.06
2018-01-07T09:18:39.259Z,86.11
2018-01-07T09:19:39.231Z,86.59
2018-01-07T09:20:39.221Z,86.21
2018-01-07T09:21:39.189Z,85.64
2018-01-07T09:22:39.171Z,86.59
2018-01-07T09:23:39.148Z,86.02
2018-01-07T09:24:39.133Z,87.02
2018-01-07T09:25:39.121Z,86.45
2018-01-07T09:26:39.097Z,87.30
2018-01-07T09:27:39.070Z,88.06
2018-01-07T09:28:39.052Z,88.44
2018-01-07T09:29:39.028Z,87.68
2018-01-07T09:30:39.009Z,87.12
2018-01-07T09:31:38.996Z,88.25
2018-01-07T09:32:38.958Z,88.16
2018-01-07T09:33:38.944Z,87.54
2018-01-07T09:34:38.925Z,88.68
2018-01-07T09:35:38.896Z,88.73
2018-01-07T09:36:38.879Z,89.20
2018-01-07T09:37:38.862Z,89.58
2018-01-07T09:38:38.838Z,89.11
2018-01-07T09:39:38.811Z,88.54
2018-01-07T09:40:38.792Z,88.82
2018-01-07T09:41:38.770Z,89.11
2018-01-07T09:42:38.748Z,88.35
2018-01-07T09:43:38.727Z,88.35
2018-01-07T09:44:38.702Z,88.44
2018-01-07T09:45:38.785Z,88.44
2018-01-07T09:46:38.660Z,87.68
2018-01-07T09:47:38.641Z,88.16
2018-01-07T09:48:38.618Z,88.06
2018-01-07T09:49:38.599Z,88.16
2018-01-07T09:50:38.577Z,87.87
2018-01-07T09:51:38.560Z,87.59
2018-01-07T09:52:38.532Z,88.25
2018-01-07T09:53:38.511Z,88.20
2018-01-07T09:54:38.492Z,87.21
2018-01-07T09:55:38.471Z,87.73
2018-01-07T09:56:38.452Z,86.63
2018-01-07T09:57:38.424Z,86.16
2018-01-07T09:58:38.409Z,84.49
2018-01-07T09:59:38.383Z,83.73
2018-01-07T10:00:38.372Z,82.78
2018-01-07T10:01:38.347Z,82.40
2018-01-07T10:02:38.335Z,81.26
2018-01-07T10:03:38.317Z,81.32
2018-01-07T10:04:38.294Z,82.46
2018-01-07T10:05:38.275Z,83.50
2018-01-07T10:06:38.255Z,83.69
2018-01-07T10:07:38.231Z,83.36
2018-01-07T10:08:38.213Z,82.12
2018-01-07T10:09:38.191Z,80.93
2018-01-07T10:10:38.172Z,79.31
2018-01-07T10:11:38.158Z,80.83
2018-01-07T10:12:38.133Z,81.84
2018-01-07T10:13:38.117Z,82.36
2018-01-07T10:14:38.100Z,83.54
2018-01-07T10:15:38.082Z,82.21
2018-01-07T10:16:38.056Z,81.17
2018-01-07T10:17:38.050Z,82.21
2018-01-07T10:18:38.023Z,82.50
2018-01-07T10:19:38.006Z,82.50
2018-01-07T10:20:37.994Z,81.21
2018-01-07T10:21:37.967Z,81.26
2018-01-07T10:22:37.955Z,82.12
2018-01-07T10:23:37.935Z,82.03
2018-01-07T10:24:37.913Z,81.51
2018-01-07T10:25:37.893Z,82.74
2018-01-07T10:26:37.879Z,82.84
2018-01-07T10:27:37.857Z,81.59
2018-01-07T10:28:37.833Z,80.88
2018-01-07T10:29:37.820Z,81.79
2018-01-07T10:30:37.798Z,82.03
2018-01-07T10:31:37.798Z,82.08
2018-01-07T10:32:37.771Z,82.65
2018-01-07T10:33:37.754Z,83.50
2018-01-07T10:34:37.721Z,84.36
2018-01-07T10:35:37.704Z,84.63
2018-01-07T10:36:37.691Z,81.59
2018-01-07T10:37:37.681Z,77.83
2018-01-07T10:38:37.650Z,76.21
2018-01-07T10:39:37.642Z,76.59
2018-01-07T10:40:37.611Z,75.21
2018-01-07T10:41:37.603Z,72.26
2018-01-07T10:42:37.581Z,73.97
2018-01-07T10:43:37.567Z,72.79
2018-01-07T10:44:37.546Z,73.08
2018-01-07T10:45:37.527Z,75.99
2018-01-07T10:46:37.508Z,75.42
2018-01-07T10:47:37.505Z,77.70
2018-01-07T10:48:37.481Z,78.08
2018-01-07T10:49:37.459Z,79.65
2018-01-07T10:50:37.448Z,79.74
2018-01-07T10:51:37.432Z,81.12
2018-01-07T10:52:37.401Z,80.41
2018-01-07T10:53:37.385Z,81.41
2018-01-07T10:54:37.364Z,82.69
2018-01-07T10:55:37.350Z,83.78
2018-01-07T10:56:37.331Z,83.69
2018-01-07T10:57:37.311Z,84.26
2018-01-07T10:58:37.292Z,83.97
2018-01-07T10:59:37.275Z,84.41
2018-01-07T11:00:37.252Z,84.98
2018-01-07T11:01:37.236Z,85.93
2018-01-07T11:02:37.221Z,86.68
2018-01-07T11:03:37.193Z,86.21
2018-01-07T11:04:37.174Z,85.74
2018-01-07T11:05:37.158Z,86.30
2018-01-07T11:06:37.143Z,86.02
2018-01-07T11:07:37.120Z,85.97
2018-01-07T11:08:37.097Z,84.45
2018-01-07T11:09:37.077Z,84.92
2018-01-07T11:10:37.062Z,84.36
2018-01-07T11:11:37.034Z,84.64
2018-01-07T11:12:37.021Z,84.26
2018-01-07T11:13:37.002Z,84.26
2018-01-07T11:14:36.982Z,84.64
2018-01-07T11:15:36.967Z,84.01
2018-01-07T11:16:36.934Z,83.50
2018-01-07T11:17:36.918Z,82.97
2018-01-07T11:18:36.902Z,81.97
2018-01-07T11:19:36.879Z,82.16
2018-01-07T11:20:36.877Z,78.11
2018-01-07T11:21:36.843Z,79.12
2018-01-07T11:22:36.820Z,79.60
2018-01-07T11:23:36.806Z,80.07
2018-01-07T11:24:36.784Z,79.60
2018-01-07T11:25:36.765Z,79.79
2018-01-07T11:26:36.755Z,79.88
2018-01-07T11:27:36.731Z,80.98
2018-01-07T11:28:36.710Z,81.02
2018-01-07T11:29:36.690Z,80.55
2018-01-07T11:30:36.672Z,77.92
2018-01-07T11:31:36.658Z,76.84
2018-01-07T11:32:36.635Z,77.03
2018-01-07T11:33:36.621Z,77.60
2018-01-07T11:34:36.613Z,78.17
2018-01-07T11:35:36.582Z,77.36
2018-01-07T11:36:36.573Z,75.32
2018-01-07T11:37:36.549Z,77.03
2018-01-07T11:38:36.531Z,79.31
2018-01-07T11:39:36.520Z,78.21
2018-01-07T11:40:36.500Z,75.45
2018-01-07T11:41:36.481Z,73.46
2018-01-07T11:42:36.463Z,72.41
2018-01-07T11:43:36.451Z,71.50
2018-01-07T11:44:36.432Z,72.41
2018-01-07T11:45:36.416Z,72.92
2018-01-07T11:46:36.399Z,72.79
2018-01-07T11:47:36.382Z,74.22
2018-01-07T11:48:36.362Z,76.27
2018-01-07T11:49:36.342Z,77.22
2018-01-07T11:50:36.340Z,77.89
2018-01-07T11:51:36.335Z,78.17
2018-01-07T11:52:36.291Z,78.17
2018-01-07T11:53:36.278Z,76.21
2018-01-07T11:54:36.260Z,74.03
2018-01-07T11:55:36.248Z,74.03
2018-01-07T11:56:36.273Z,75.99
2018-01-07T11:57:36.211Z,76.46
2018-01-07T11:58:36.193Z,76.93
2018-01-07T11:59:36.191Z,77.56
2018-01-07T12:00:36.159Z,79.03
2018-01-07T12:01:36.140Z,76.31
2018-01-07T12:02:36.120Z,75.32
2018-01-07T12:03:36.107Z,74.85
2018-01-07T12:04:36.102Z,74.51
2018-01-07T12:05:36.073Z,74.69
2018-01-07T12:06:36.062Z,73.27
2018-01-07T12:07:36.044Z,74.03
2018-01-07T12:08:36.024Z,74.31
2018-01-07T12:09:36.020Z,75.07
2018-01-07T12:10:35.990Z,74.31
2018-01-07T12:11:35.979Z,72.41
2018-01-07T12:12:35.958Z,73.18
2018-01-07T12:13:35.948Z,74.88
2018-01-07T12:14:35.935Z,74.79
2018-01-07T12:15:35.915Z,76.31
2018-01-07T12:16:35.891Z,72.89
2018-01-07T12:17:35.881Z,74.35
2018-01-07T12:18:35.862Z,70.64
2018-01-07T12:19:35.853Z,71.12
2018-01-07T12:20:35.840Z,70.83
2018-01-07T12:21:35.813Z,69.60
2018-01-07T12:22:35.804Z,69.56
2018-01-07T12:23:35.829Z,71.14
2018-01-07T12:24:35.772Z,74.85
2018-01-07T12:25:35.746Z,76.75
2018-01-07T12:26:35.734Z,77.41
2018-01-07T12:27:35.720Z,78.08
2018-01-07T12:28:35.693Z,77.89
2018-01-07T12:29:35.678Z,78.42
2018-01-07T12:30:35.660Z,77.89
2018-01-07T12:31:35.646Z,78.89
2018-01-07T12:32:35.632Z,78.17
2018-01-07T12:33:35.610Z,76.65
2018-01-07T12:34:35.589Z,76.08
2018-01-07T12:35:35.583Z,75.42
2018-01-07T12:36:35.566Z,75.23
2018-01-07T12:37:35.543Z,75.89
2018-01-07T12:38:35.526Z,77.98
2018-01-07T12:39:35.520Z,77.89
2018-01-07T12:40:35.492Z,78.89
2018-01-07T12:41:35.474Z,78.93
2018-01-07T12:42:35.460Z,78.13
2018-01-07T12:43:35.443Z,80.69
2018-01-07T12:44:35.422Z,81.36
2018-01-07T12:45:35.414Z,81.51
2018-01-07T12:46:35.384Z,81.98
2018-01-07T12:47:35.363Z,83.07
2018-01-07T12:48:35.344Z,82.78
2018-01-07T12:49:35.335Z,82.78
2018-01-07T12:50:35.311Z,81.45
2018-01-07T12:51:35.300Z,81.36
2018-01-07T12:52:35.270Z,82.74